createdAt,value
2023-01-13T00:00:39.533Z,100101.56
2023-01-13T00:01:28.034Z,100092.88
2023-01-13T00:02:14.957Z,100092.00
2023-01-13T00:03:02.112Z,100101.06
2023-01-13T00:03:49.478Z,100102.03
2023-01-13T00:04:36.519Z,100092.88
2023-01-13T00:05:23.481Z,100099.06
2023-01-13T00:06:13.840Z,100091.47
2023-01-13T00:07:00.761Z,100096.06
2023-01-13T00:07:49.462Z,100089.62
2023-01-13T00:08:36.364Z,100090.94
2023-01-13T00:09:23.371Z,100090.94
2023-01-13T00:10:11.359Z,100084.50
2023-01-13T00:10:58.563Z,100086.94
2023-01-13T00:11:45.490Z,100088.31
2023-01-13T00:12:32.397Z,100084.66
2023-01-13T00:13:26.829Z,100084.41
2023-01-13T00:14:13.700Z,100089.09
2023-01-13T00:15:00.653Z,100080.22
2023-01-13T00:15:56.595Z,100078.81
2023-01-13T00:16:43.544Z,100075.81
2023-01-13T00:17:30.432Z,100069.78
2023-01-13T00:18:17.293Z,100073.28
2023-01-13T00:19:04.271Z,100068.78
2023-01-13T00:19:51.558Z,100074.06
2023-01-13T00:20:38.529Z,100078.19
2023-01-13T00:21:25.764Z,100074.37
2023-01-13T00:22:12.733Z,100074.28
2023-01-13T00:23:00.439Z,100075.22
2023-01-13T00:23:47.847Z,100077.06
2023-01-13T00:24:34.745Z,100071.75
2023-01-13T00:25:21.631Z,100068.38
2023-01-13T00:26:19.677Z,100069.78
2023-01-13T00:27:06.544Z,100074.59
2023-01-13T00:27:53.461Z,100073.50
2023-01-13T00:28:40.401Z,100078.19
2023-01-13T00:29:27.408Z,100076.75
2023-01-13T00:30:14.588Z,100082.41
2023-01-13T00:31:16.311Z,100080.03
2023-01-13T00:32:03.373Z,100074.22
2023-01-13T00:32:50.255Z,100076.34
2023-01-13T00:33:37.818Z,100081.00
2023-01-13T00:34:24.951Z,100072.28
2023-01-13T00:35:12.189Z,100069.75
2023-01-13T00:36:00.401Z,100075.28
2023-01-13T00:36:47.380Z,100073.19
2023-01-13T00:37:37.423Z,100070.97
2023-01-13T00:38:24.824Z,100071.25
2023-01-13T00:39:11.811Z,100068.13
2023-01-13T00:39:58.737Z,100069.81
2023-01-13T00:40:45.739Z,100076.56
2023-01-13T00:41:52.596Z,100071.66
2023-01-13T00:42:58.208Z,100061.63
2023-01-13T00:43:45.674Z,100070.50
2023-01-13T00:44:32.590Z,100064.44
2023-01-13T00:45:19.571Z,100067.69
2023-01-13T00:46:08.653Z,100069.75
2023-01-13T00:46:55.602Z,100077.63
2023-01-13T00:47:42.519Z,100068.19
2023-01-13T00:48:30.622Z,100069.66
2023-01-13T00:49:17.563Z,100067.59
2023-01-13T00:50:04.809Z,100068.41
2023-01-13T00:50:59.050Z,100071.78
2023-01-13T00:51:46.020Z,100063.75
2023-01-13T00:52:33.801Z,100069.34
2023-01-13T00:53:20.773Z,100070.47
2023-01-13T00:54:08.235Z,100071.00
2023-01-13T00:54:55.194Z,100065.50
2023-01-13T00:55:42.143Z,100068.03
2023-01-13T00:56:39.649Z,100065.25
2023-01-13T00:57:27.313Z,100061.97
2023-01-13T00:58:14.245Z,100069.72
2023-01-13T00:59:02.435Z,100070.03
2023-01-13T00:59:49.735Z,100066.41
2023-01-13T01:00:36.759Z,100067.56
2023-01-13T01:01:24.727Z,100068.22
2023-01-13T01:02:11.893Z,100066.66
2023-01-13T01:02:59.027Z,100069.34
2023-01-13T01:03:48.474Z,100070.87
2023-01-13T01:04:35.605Z,100064.06
2023-01-13T01:05:22.686Z,100071.09
2023-01-13T01:06:20.922Z,100070.25
2023-01-13T01:07:07.826Z,100078.59
2023-01-13T01:07:54.863Z,100074.78
2023-01-13T01:08:42.430Z,100077.03
2023-01-13T01:09:33.036Z,100077.72
2023-01-13T01:10:19.976Z,100076.25
2023-01-13T01:11:12.139Z,100081.22
2023-01-13T01:12:00.195Z,100068.50
2023-01-13T01:12:47.191Z,100068.50
2023-01-13T01:13:34.387Z,100071.06
2023-01-13T01:14:21.303Z,100074.94
2023-01-13T01:15:10.282Z,100068.66
2023-01-13T01:15:57.303Z,100073.19
2023-01-13T01:16:44.463Z,100072.88
2023-01-13T01:17:31.417Z,100074.25
2023-01-13T01:18:18.364Z,100065.94
2023-01-13T01:19:05.862Z,100070.87
2023-01-13T01:19:52.751Z,100064.81
2023-01-13T01:20:39.940Z,100061.63
2023-01-13T01:21:28.266Z,100047.75
2023-01-13T01:22:15.163Z,100062.69
2023-01-13T01:23:02.114Z,100058.03
2023-01-13T01:23:49.282Z,100056.88
2023-01-13T01:24:36.226Z,100064.03
2023-01-13T01:25:23.179Z,100054.00
2023-01-13T01:26:15.596Z,100058.66
2023-01-13T01:27:02.585Z,100056.12
2023-01-13T01:27:49.564Z,100051.13
2023-01-13T01:28:36.524Z,100056.50
2023-01-13T01:29:23.495Z,100053.91
2023-01-13T01:30:11.335Z,100053.06
2023-01-13T01:31:02.250Z,100048.69
2023-01-13T01:31:49.402Z,100046.31
2023-01-13T01:32:36.363Z,100049.16
2023-01-13T01:33:23.294Z,100057.75
2023-01-13T01:34:10.184Z,100044.56
2023-01-13T01:34:57.074Z,100044.84
2023-01-13T01:35:44.070Z,100044.09
2023-01-13T01:36:31.345Z,100039.28
2023-01-13T01:37:18.224Z,100038.28
2023-01-13T01:38:05.254Z,100043.31
2023-01-13T01:38:52.249Z,100043.72
2023-01-13T01:39:39.159Z,100040.09
2023-01-13T01:40:27.831Z,100033.53
2023-01-13T01:41:23.142Z,100041.03
2023-01-13T01:42:35.204Z,100040.91
2023-01-13T01:43:41.923Z,100032.66
2023-01-13T01:44:43.831Z,100038.44
2023-01-13T01:45:31.486Z,100036.50
2023-01-13T01:46:18.477Z,100034.28
2023-01-13T01:47:05.651Z,100029.38
2023-01-13T01:47:59.322Z,100029.28
2023-01-13T01:48:46.496Z,100028.59
2023-01-13T01:49:35.728Z,100024.09
2023-01-13T01:50:23.022Z,100025.31
2023-01-13T01:51:12.362Z,100023.03
2023-01-13T01:52:03.955Z,100019.87
2023-01-13T01:52:55.441Z,100013.50
2023-01-13T01:53:42.359Z,100015.34
2023-01-13T01:54:37.615Z,100018.16
2023-01-13T01:55:28.307Z,100013.69
2023-01-13T01:56:15.017Z,100017.72
2023-01-13T01:57:02.044Z,100022.09
2023-01-13T01:58:13.744Z,100017.72
2023-01-13T01:59:00.840Z,100011.22
2023-01-13T01:59:47.979Z,100013.78
2023-01-13T02:00:35.157Z,100010.72
2023-01-13T02:01:22.272Z,100012.25
2023-01-13T02:02:09.512Z,100008.19
2023-01-13T02:02:57.743Z,100010.03
2023-01-13T02:03:50.836Z,100012.72
2023-01-13T02:04:43.290Z,100010.72
2023-01-13T02:05:30.346Z,99998.16
2023-01-13T02:07:53.258Z,99996.41
2023-01-13T02:08:40.803Z,99999.09
2023-01-13T02:09:28.204Z,100008.12
2023-01-13T02:10:17.704Z,100001.62
2023-01-13T02:11:04.945Z,100007.16
2023-01-13T02:12:10.475Z,100010.34
2023-01-13T02:12:59.998Z,100002.94
2023-01-13T02:13:47.058Z,100005.91
2023-01-13T02:14:34.869Z,100002.75
2023-01-13T02:15:24.401Z,99994.56
2023-01-13T02:16:17.840Z,99997.72
2023-01-13T02:17:54.213Z,100000.25
2023-01-13T02:18:56.744Z,100000.28
2023-01-13T02:19:43.698Z,99994.09
2023-01-13T02:20:54.839Z,99995.09
2023-01-13T02:22:00.608Z,99989.28
2023-01-13T02:22:59.737Z,99987.81
2023-01-13T02:24:05.155Z,99985.28
2023-01-13T02:25:13.482Z,99984.59
2023-01-13T02:26:15.858Z,99981.84
2023-01-13T02:27:40.105Z,99974.41
2023-01-13T02:29:05.478Z,99970.97
2023-01-13T02:30:29.108Z,99965.66
2023-01-13T02:31:34.769Z,99971.66
2023-01-13T02:32:32.435Z,99971.03
2023-01-13T02:33:50.708Z,99968.56
2023-01-13T02:34:44.309Z,99972.78
2023-01-13T02:35:35.978Z,99970.78
2023-01-13T02:36:39.725Z,99969.59
2023-01-13T02:37:30.546Z,99968.22
2023-01-13T02:38:20.787Z,99965.59
2023-01-13T02:39:14.617Z,99976.84
2023-01-13T02:40:10.350Z,99974.00
2023-01-13T02:41:50.995Z,99968.28
2023-01-13T02:43:07.746Z,99970.78
2023-01-13T02:44:09.471Z,99966.97
2023-01-13T02:45:03.218Z,99970.28
2023-01-13T02:45:54.150Z,99959.69
2023-01-13T02:46:53.832Z,99967.41
2023-01-13T02:47:42.495Z,99964.44
2023-01-13T02:48:31.649Z,99964.44
2023-01-13T02:49:40.298Z,99967.47
2023-01-13T02:50:38.749Z,99969.66
2023-01-13T02:51:27.596Z,99965.59
2023-01-13T02:52:26.557Z,99960.59
2023-01-13T02:53:18.790Z,99957.69
2023-01-13T02:54:07.747Z,99960.31
2023-01-13T02:55:01.349Z,99962.91
2023-01-13T02:55:50.898Z,99965.81
2023-01-13T02:56:41.077Z,99960.22
2023-01-13T02:57:31.806Z,99963.37
2023-01-13T02:58:23.617Z,99961.06
2023-01-13T02:59:11.251Z,99962.22
2023-01-13T02:59:58.308Z,99956.66
2023-01-13T03:00:46.476Z,99953.53
2023-01-13T03:01:33.753Z,99954.22
2023-01-13T03:02:22.194Z,99954.91
2023-01-13T03:03:09.511Z,99949.22
2023-01-13T03:03:56.507Z,99954.59
2023-01-13T03:04:55.313Z,99952.44
2023-01-13T03:05:44.900Z,99944.06
2023-01-13T03:06:56.010Z,99951.44
2023-01-13T03:08:01.343Z,99948.88
2023-01-13T03:09:00.975Z,99955.41
2023-01-13T03:09:59.353Z,99943.31
2023-01-13T03:10:49.236Z,99947.69
2023-01-13T03:11:46.011Z,99952.00
2023-01-13T03:12:33.032Z,99946.47
2023-01-13T03:13:38.392Z,99945.66
2023-01-13T03:15:06.730Z,99943.94
2023-01-13T03:16:08.809Z,99952.38
2023-01-13T03:16:58.661Z,99941.78
2023-01-13T03:18:02.659Z,99952.38
2023-01-13T03:18:55.138Z,99953.53
2023-01-13T03:19:53.934Z,99938.13
2023-01-13T03:20:54.809Z,99939.75
2023-01-13T03:21:49.063Z,99935.22
2023-01-13T03:22:47.410Z,99940.22
2023-01-13T03:24:12.530Z,99937.06
2023-01-13T03:25:28.012Z,99936.28
2023-01-13T03:26:18.979Z,99936.81
2023-01-13T03:27:11.825Z,99932.28
2023-01-13T03:28:10.577Z,99928.91
2023-01-13T03:29:13.021Z,99931.44
2023-01-13T03:30:21.505Z,99938.16
2023-01-13T03:31:14.511Z,99925.13
2023-01-13T03:32:27.863Z,99927.75
2023-01-13T03:33:22.259Z,99920.72
2023-01-13T03:34:14.283Z,99930.75
2023-01-13T03:35:10.371Z,99927.91
2023-01-13T03:36:02.712Z,99932.09
2023-01-13T03:36:53.260Z,99922.72
2023-01-13T03:37:43.073Z,99926.28
2023-01-13T03:38:43.141Z,99928.09
2023-01-13T03:39:33.691Z,99935.81
2023-01-13T03:40:27.902Z,99936.50
2023-01-13T03:41:24.335Z,99930.09
2023-01-13T03:42:15.997Z,99928.28
2023-01-13T03:43:50.111Z,99926.09
2023-01-13T03:44:49.941Z,99926.59
2023-01-13T03:45:40.350Z,99930.09
2023-01-13T03:46:31.502Z,99917.84
2023-01-13T03:47:22.708Z,99926.28
2023-01-13T03:48:13.901Z,99923.75
2023-01-13T03:49:03.851Z,99929.16
2023-01-13T03:50:02.671Z,99926.63
2023-01-13T03:50:53.462Z,99923.59
2023-01-13T03:51:41.780Z,99922.72
2023-01-13T03:52:36.167Z,99929.94
2023-01-13T03:53:32.665Z,99925.28
2023-01-13T03:54:22.084Z,99924.97
2023-01-13T03:55:13.551Z,99922.78
2023-01-13T03:56:10.381Z,99924.87
2023-01-13T03:57:02.815Z,99926.63
2023-01-13T03:58:16.883Z,99927.94
2023-01-13T03:59:05.850Z,99924.59
2023-01-13T03:59:56.621Z,99929.81
2023-01-13T04:00:57.801Z,99924.97
2023-01-13T04:02:02.572Z,99924.31
2023-01-13T04:02:49.546Z,99926.88
2023-01-13T04:03:45.884Z,99924.31
2023-01-13T04:04:44.328Z,99931.38
2023-01-13T04:05:33.170Z,99926.16
2023-01-13T04:06:25.991Z,99930.69
2023-01-13T04:07:33.505Z,99928.84
2023-01-13T04:08:23.379Z,99933.37
2023-01-13T04:09:30.415Z,99931.03
2023-01-13T04:10:21.206Z,99935.16
2023-01-13T04:11:13.053Z,99936.97
2023-01-13T04:12:24.248Z,99941.16
2023-01-13T04:13:11.943Z,99940.84
2023-01-13T04:14:00.460Z,99938.16
2023-01-13T04:14:47.737Z,99935.72
2023-01-13T04:15:43.073Z,99935.31
2023-01-13T04:16:30.176Z,99938.47
2023-01-13T04:17:17.373Z,99940.34
2023-01-13T04:18:13.463Z,99938.84
2023-01-13T04:19:00.514Z,99941.31
2023-01-13T04:19:47.621Z,99936.34
2023-01-13T04:20:34.653Z,99939.03
2023-01-13T04:21:21.784Z,99941.78
2023-01-13T04:22:08.819Z,99943.09
2023-01-13T04:22:55.784Z,99941.25
2023-01-13T04:23:42.744Z,99939.31
2023-01-13T04:24:29.748Z,99937.16
2023-01-13T04:25:16.906Z,99948.22
2023-01-13T04:26:03.924Z,99936.81
2023-01-13T04:26:51.053Z,99936.62
2023-01-13T04:27:38.385Z,99945.06
2023-01-13T04:28:26.258Z,99943.53
2023-01-13T04:29:15.551Z,99950.75
2023-01-13T04:30:02.840Z,99948.37
2023-01-13T04:30:49.951Z,99946.88
2023-01-13T04:31:38.404Z,99945.16
2023-01-13T04:32:25.465Z,99950.69
2023-01-13T04:33:13.448Z,99951.69
2023-01-13T04:34:00.440Z,99945.50
2023-01-13T04:34:47.468Z,99957.75
2023-01-13T04:35:35.477Z,99953.53
2023-01-13T04:36:27.754Z,99945.69
2023-01-13T04:37:14.741Z,99957.91
2023-01-13T04:38:06.305Z,99941.59
2023-01-13T04:38:54.914Z,99957.47
2023-01-13T04:39:41.936Z,99947.72
2023-01-13T04:40:28.890Z,99951.62
2023-01-13T04:41:15.881Z,99945.66
2023-01-13T04:42:03.019Z,99946.97
2023-01-13T04:42:50.145Z,99947.28
2023-01-13T04:43:37.255Z,99955.00
2023-01-13T04:44:24.260Z,99945.09
2023-01-13T04:45:11.941Z,99952.16
2023-01-13T04:45:58.928Z,99948.59
2023-01-13T04:46:46.021Z,99942.34
2023-01-13T04:47:32.988Z,99944.06
2023-01-13T04:48:20.030Z,99931.63
2023-01-13T04:49:07.041Z,99933.13
2023-01-13T04:49:54.101Z,99929.75
2023-01-13T04:50:41.233Z,99942.47
2023-01-13T04:51:28.332Z,99947.56
2023-01-13T04:52:15.379Z,99945.16
2023-01-13T04:53:02.485Z,99945.00
2023-01-13T04:53:51.564Z,99937.19
2023-01-13T04:54:38.572Z,99932.28
2023-01-13T04:55:25.925Z,99935.41
2023-01-13T04:56:12.937Z,99937.59
2023-01-13T04:56:59.888Z,99933.88
2023-01-13T04:57:46.871Z,99934.38
2023-01-13T04:58:33.852Z,99938.47
2023-01-13T04:59:20.858Z,99932.28
2023-01-13T05:00:08.972Z,99941.25
2023-01-13T05:00:55.971Z,99934.03
2023-01-13T05:01:43.134Z,99943.41
2023-01-13T05:02:30.145Z,99937.41
2023-01-13T05:03:17.381Z,99925.91
2023-01-13T05:04:04.825Z,99927.75
2023-01-13T05:04:51.981Z,99933.41
2023-01-13T05:05:39.370Z,99928.38
2023-01-13T05:06:26.344Z,99929.34
2023-01-13T05:07:14.171Z,99927.56
2023-01-13T05:08:01.300Z,99933.81
2023-01-13T05:08:48.414Z,99935.31
2023-01-13T05:09:36.729Z,99930.03
2023-01-13T05:10:24.224Z,99931.31
2023-01-13T05:11:29.939Z,99928.94
2023-01-13T05:12:35.786Z,99930.84
2023-01-13T05:13:41.373Z,99928.66
2023-01-13T05:14:47.038Z,99929.47
2023-01-13T05:15:52.735Z,99925.47
2023-01-13T05:16:58.436Z,99924.00
2023-01-13T05:17:45.630Z,99921.09
2023-01-13T05:18:32.653Z,99921.03
2023-01-13T05:19:19.649Z,99924.87
2023-01-13T05:20:07.461Z,99922.50
2023-01-13T05:20:54.450Z,99920.53
2023-01-13T05:21:59.876Z,99923.56
2023-01-13T05:23:05.492Z,99922.88
2023-01-13T05:24:11.028Z,99923.56
2023-01-13T05:25:16.712Z,99923.88
2023-01-13T05:26:04.072Z,99916.75
2023-01-13T05:26:51.050Z,99911.47
2023-01-13T05:27:38.005Z,99908.09
2023-01-13T05:28:24.999Z,99915.16
2023-01-13T05:29:12.007Z,99909.94
2023-01-13T05:29:59.222Z,99910.63
2023-01-13T05:30:47.518Z,99921.81
2023-01-13T05:31:34.609Z,99910.09
2023-01-13T05:32:22.339Z,99915.53
2023-01-13T05:33:13.786Z,99915.84
2023-01-13T05:34:00.790Z,99911.69
2023-01-13T05:34:47.941Z,99907.19
2023-01-13T05:35:35.065Z,99913.47
2023-01-13T05:36:22.028Z,99914.06
2023-01-13T05:37:11.318Z,99905.59
2023-01-13T05:37:58.320Z,99912.16
2023-01-13T05:38:45.300Z,99902.91
2023-01-13T05:39:52.364Z,99904.91
2023-01-13T05:40:59.566Z,99903.75
2023-01-13T05:42:05.114Z,99907.41
2023-01-13T05:43:26.065Z,99906.72
2023-01-13T05:44:13.062Z,99902.66
2023-01-13T05:44:59.995Z,99900.63
2023-01-13T05:46:09.937Z,99901.37
2023-01-13T05:46:56.955Z,99908.81
2023-01-13T05:47:44.100Z,99901.94
2023-01-13T05:48:34.953Z,99911.56
2023-01-13T05:49:21.978Z,99913.94
2023-01-13T05:50:09.602Z,99912.94
2023-01-13T05:50:57.080Z,99919.34
2023-01-13T05:51:44.055Z,99927.72
2023-01-13T05:52:31.002Z,99925.66
2023-01-13T05:53:18.748Z,99931.03
2023-01-13T05:54:05.957Z,99928.97
2023-01-13T05:54:52.921Z,99933.44
2023-01-13T05:55:41.292Z,99928.41
2023-01-13T05:56:28.349Z,99930.41
2023-01-13T05:57:15.314Z,99937.22
2023-01-13T05:58:02.353Z,99939.91
2023-01-13T05:58:49.419Z,99936.69
2023-01-13T05:59:36.442Z,99940.69
2023-01-13T06:00:23.832Z,99941.75
2023-01-13T06:01:11.520Z,99947.19
2023-01-13T06:01:58.525Z,99940.69
2023-01-13T06:02:45.621Z,99944.06
2023-01-13T06:03:32.730Z,99944.81
2023-01-13T06:04:19.963Z,99946.88
2023-01-13T06:05:07.216Z,99948.41
2023-01-13T06:05:58.944Z,99944.03
2023-01-13T06:06:45.954Z,99947.25
2023-01-13T06:07:32.996Z,99946.78
2023-01-13T06:08:20.129Z,99950.75
2023-01-13T06:09:07.144Z,99949.66
2023-01-13T06:09:54.227Z,99953.31
2023-01-13T06:10:41.328Z,99957.81
2023-01-13T06:11:28.340Z,99958.81
2023-01-13T06:12:15.370Z,99957.00
2023-01-13T06:13:02.713Z,99966.00
2023-01-13T06:13:49.723Z,99961.09
2023-01-13T06:14:42.691Z,99962.72
2023-01-13T06:15:29.948Z,99959.62
2023-01-13T06:16:16.972Z,99963.78
2023-01-13T06:17:03.974Z,99955.41
2023-01-13T06:17:51.123Z,99955.31
2023-01-13T06:18:38.140Z,99964.38
2023-01-13T06:19:25.144Z,99955.31
2023-01-13T06:20:13.292Z,99961.59
2023-01-13T06:21:00.298Z,99959.03
2023-01-13T06:21:47.312Z,99961.28
2023-01-13T06:22:35.985Z,99961.44
2023-01-13T06:23:23.553Z,99954.63
2023-01-13T06:24:10.917Z,99962.19
2023-01-13T06:24:58.093Z,99959.38
2023-01-13T06:25:50.453Z,99955.09
2023-01-13T06:26:41.011Z,99960.44
2023-01-13T06:27:29.537Z,99948.78
2023-01-13T06:28:16.571Z,99949.75
2023-01-13T06:29:03.583Z,99952.03
2023-01-13T06:29:50.827Z,99941.84
2023-01-13T06:30:48.014Z,99946.50
2023-01-13T06:31:37.739Z,99948.44
2023-01-13T06:32:29.134Z,99948.66
2023-01-13T06:33:18.827Z,99940.44
2023-01-13T06:34:12.902Z,99937.03
2023-01-13T06:35:05.652Z,99938.19
2023-01-13T06:35:55.950Z,99937.88
2023-01-13T06:36:46.889Z,99939.44
2023-01-13T06:37:35.155Z,99943.09
2023-01-13T06:38:23.314Z,99939.94
2023-01-13T06:39:11.267Z,99944.47
2023-01-13T06:40:00.241Z,99944.31
2023-01-13T06:40:47.325Z,99947.06
2023-01-13T06:41:53.297Z,99945.78
2023-01-13T06:42:59.024Z,99952.94
2023-01-13T06:43:46.910Z,99958.72
2023-01-13T06:44:33.997Z,99955.37
2023-01-13T06:45:21.743Z,99952.00
2023-01-13T06:46:08.768Z,99949.91
2023-01-13T06:46:55.862Z,99957.53
2023-01-13T06:47:43.732Z,99954.59
2023-01-13T06:48:35.281Z,99955.50
2023-01-13T06:49:22.422Z,99951.44
2023-01-13T06:50:10.419Z,99966.00
2023-01-13T06:50:57.416Z,99954.72
2023-01-13T06:51:44.473Z,99956.41
2023-01-13T06:52:31.613Z,99957.53
2023-01-13T06:53:18.709Z,99957.53
2023-01-13T06:54:05.851Z,99960.91
2023-01-13T06:54:53.062Z,99956.81
2023-01-13T06:55:40.151Z,99961.00
2023-01-13T06:56:27.184Z,99957.19
2023-01-13T06:57:14.278Z,99962.72
2023-01-13T06:58:01.449Z,99962.53
2023-01-13T06:58:48.501Z,99964.06
2023-01-13T06:59:35.512Z,99957.75
2023-01-13T07:00:24.926Z,99961.25
2023-01-13T07:01:12.049Z,99954.69
2023-01-13T07:01:59.134Z,99956.13
2023-01-13T07:02:46.482Z,99957.84
2023-01-13T07:03:33.502Z,99961.00
2023-01-13T07:04:20.501Z,99965.78
2023-01-13T07:05:07.988Z,99961.97
2023-01-13T07:05:56.100Z,99959.28
2023-01-13T07:06:43.184Z,99962.81
2023-01-13T07:07:30.385Z,99954.63
2023-01-13T07:08:17.407Z,99958.00
2023-01-13T07:09:06.716Z,99952.19
2023-01-13T07:09:53.876Z,99960.91
2023-01-13T07:10:40.896Z,99963.13
2023-01-13T07:11:27.918Z,99959.78
2023-01-13T07:12:14.985Z,99960.63
2023-01-13T07:13:21.181Z,99962.44
2023-01-13T07:14:27.106Z,99964.88
2023-01-13T07:15:19.880Z,99967.97
2023-01-13T07:16:08.152Z,99963.66
2023-01-13T07:16:55.253Z,99974.53
2023-01-13T07:17:42.177Z,99971.84
2023-01-13T07:18:32.134Z,99967.81
2023-01-13T07:19:23.982Z,99974.66
2023-01-13T07:20:11.546Z,99973.97
2023-01-13T07:21:00.499Z,99973.94
2023-01-13T07:21:47.526Z,99970.34
2023-01-13T07:22:34.561Z,99976.88
2023-01-13T07:23:21.549Z,99982.66
2023-01-13T07:24:08.639Z,99975.00
2023-01-13T07:24:55.641Z,99979.91
2023-01-13T07:25:42.641Z,99981.88
2023-01-13T07:26:29.689Z,99981.97
2023-01-13T07:27:16.807Z,99976.47
2023-01-13T07:28:03.858Z,99970.81
2023-01-13T07:28:51.070Z,99977.59
2023-01-13T07:29:38.269Z,99976.59
2023-01-13T07:30:25.243Z,99981.97
2023-01-13T07:31:17.945Z,99971.94
2023-01-13T07:32:05.926Z,99971.50
2023-01-13T07:32:52.965Z,99966.69
2023-01-13T07:33:39.999Z,99974.53
2023-01-13T07:34:27.039Z,99974.38
2023-01-13T07:35:14.103Z,99976.47
2023-01-13T07:36:03.458Z,99980.72
2023-01-13T07:36:50.517Z,99971.16
2023-01-13T07:37:39.590Z,99980.56
2023-01-13T07:38:27.225Z,99978.63
2023-01-13T07:39:14.253Z,99977.66
2023-01-13T07:40:01.980Z,99981.56
2023-01-13T07:40:49.023Z,99983.41
2023-01-13T07:41:54.411Z,99979.97
2023-01-13T07:43:00.158Z,99984.88
2023-01-13T07:43:51.239Z,99987.09
2023-01-13T07:44:38.249Z,99980.31
2023-01-13T07:45:25.238Z,99979.31
2023-01-13T07:46:12.337Z,99976.34
2023-01-13T07:46:59.703Z,99972.09
2023-01-13T07:47:46.740Z,99982.47
2023-01-13T07:48:34.943Z,99970.53
2023-01-13T07:49:21.897Z,99974.59
2023-01-13T07:50:09.887Z,99973.81
2023-01-13T07:50:57.147Z,99977.97
2023-01-13T07:51:44.261Z,99968.59
2023-01-13T07:52:31.256Z,99969.53
2023-01-13T07:53:18.254Z,99966.38
2023-01-13T07:54:05.510Z,99969.84
2023-01-13T07:54:52.521Z,99972.16
2023-01-13T07:55:43.379Z,99967.06
2023-01-13T07:56:30.388Z,99967.62
2023-01-13T07:57:17.467Z,99970.00
2023-01-13T07:58:04.415Z,99971.69
2023-01-13T07:58:53.222Z,99967.19
2023-01-13T07:59:40.240Z,99963.66
2023-01-13T08:00:27.769Z,99967.66
2023-01-13T08:01:16.939Z,99962.84
2023-01-13T08:02:04.413Z,99963.41
2023-01-13T08:02:52.375Z,99968.63
2023-01-13T08:03:40.761Z,99966.28
2023-01-13T08:04:27.757Z,99965.13
2023-01-13T08:05:14.949Z,99975.25
2023-01-13T08:06:02.525Z,99967.72
2023-01-13T08:06:49.778Z,99967.66
2023-01-13T08:07:36.832Z,99970.00
2023-01-13T08:08:23.859Z,99975.22
2023-01-13T08:09:10.894Z,99974.28
2023-01-13T08:09:57.902Z,99973.62
2023-01-13T08:10:45.373Z,99964.44
2023-01-13T08:11:32.340Z,99970.22
2023-01-13T08:12:37.825Z,99966.12
2023-01-13T08:13:24.847Z,99965.16
2023-01-13T08:14:11.827Z,99969.56
2023-01-13T08:14:58.861Z,99966.56
2023-01-13T08:15:51.184Z,99969.53
2023-01-13T08:16:38.223Z,99969.69
2023-01-13T08:17:25.831Z,99973.19
2023-01-13T08:18:13.213Z,99977.41
2023-01-13T08:19:00.262Z,99976.28
2023-01-13T08:19:47.717Z,99977.19
2023-01-13T08:20:34.982Z,99978.66
2023-01-13T08:21:22.032Z,99985.91
2023-01-13T08:22:09.072Z,99983.25
2023-01-13T08:22:59.861Z,99988.31
2023-01-13T08:23:47.084Z,99972.53
2023-01-13T08:24:34.140Z,99974.03
2023-01-13T08:25:21.196Z,99973.22
2023-01-13T08:26:13.216Z,99963.84
2023-01-13T08:27:00.208Z,99972.25
2023-01-13T08:27:49.749Z,99971.75
2023-01-13T08:28:37.341Z,99973.94
2023-01-13T08:29:24.422Z,99966.88
2023-01-13T08:30:11.745Z,99965.22
2023-01-13T08:31:07.717Z,99974.12
2023-01-13T08:31:54.691Z,99973.19
2023-01-13T08:32:44.574Z,99968.00
2023-01-13T08:33:31.825Z,99966.81
2023-01-13T08:34:18.770Z,99962.63
2023-01-13T08:35:06.173Z,99967.19
2023-01-13T08:35:53.597Z,99970.59
2023-01-13T08:36:40.602Z,99965.22
2023-01-13T08:37:27.617Z,99960.69
2023-01-13T08:38:14.602Z,99966.75
2023-01-13T08:39:01.694Z,99971.44
2023-01-13T08:39:48.715Z,99971.94
2023-01-13T08:40:36.242Z,99974.47
2023-01-13T08:41:41.942Z,99979.34
2023-01-13T08:42:28.927Z,99976.66
2023-01-13T08:43:16.284Z,99981.88
2023-01-13T08:44:03.486Z,99978.69
2023-01-13T08:44:50.460Z,99978.03
2023-01-13T08:45:37.693Z,99981.88
2023-01-13T08:46:24.695Z,99976.00
2023-01-13T08:47:11.696Z,99981.56
2023-01-13T08:47:59.290Z,99983.41
2023-01-13T08:48:46.289Z,99985.75
2023-01-13T08:49:33.757Z,99988.44
2023-01-13T08:50:20.845Z,99985.06
2023-01-13T08:51:09.232Z,99984.25
2023-01-13T08:51:56.437Z,99984.41
2023-01-13T08:52:43.575Z,99995.69
2023-01-13T08:53:31.009Z,99991.81
2023-01-13T08:54:18.885Z,99987.59
2023-01-13T08:55:06.427Z,99997.19
2023-01-13T08:55:54.832Z,99994.19
2023-01-13T08:56:47.272Z,99996.53
2023-01-13T08:57:34.260Z,99998.88
2023-01-13T08:58:21.369Z,99991.31
2023-01-13T08:59:13.966Z,99990.78
2023-01-13T09:00:00.903Z,99997.34
2023-01-13T09:00:47.881Z,99995.34
2023-01-13T09:01:37.014Z,100002.38
2023-01-13T09:02:25.707Z,100003.56
2023-01-13T09:03:12.847Z,100001.03
2023-01-13T09:03:59.884Z,100006.28
2023-01-13T09:04:47.221Z,100002.91
2023-01-13T09:05:36.115Z,100003.06
2023-01-13T09:06:23.082Z,100005.44
2023-01-13T09:07:10.744Z,100002.38
2023-01-13T09:07:57.763Z,100003.56
2023-01-13T09:08:45.164Z,100002.38
2023-01-13T09:09:32.375Z,100006.72
2023-01-13T09:10:19.347Z,100003.19
2023-01-13T09:11:26.469Z,100002.22
2023-01-13T09:12:33.887Z,100005.59
2023-01-13T09:13:22.039Z,100001.84
2023-01-13T09:14:09.001Z,100002.00
2023-01-13T09:14:56.187Z,100004.69
2023-01-13T09:15:45.959Z,100002.75
2023-01-13T09:16:33.157Z,100002.38
2023-01-13T09:17:20.289Z,100000.50
2023-01-13T09:18:07.472Z,100007.44
2023-01-13T09:18:54.559Z,100009.13
2023-01-13T09:19:42.431Z,100005.94
2023-01-13T09:20:29.461Z,100009.97
2023-01-13T09:21:20.000Z,100003.72
2023-01-13T09:22:07.115Z,100008.59
2023-01-13T09:22:54.098Z,100010.16
2023-01-13T09:23:43.168Z,100004.59
2023-01-13T09:24:30.558Z,99999.00
2023-01-13T09:25:17.511Z,99996.31
2023-01-13T09:26:04.622Z,99987.72
2023-01-13T09:26:51.814Z,99988.09
2023-01-13T09:27:39.065Z,99995.97
2023-01-13T09:28:26.058Z,99988.41
2023-01-13T09:29:13.140Z,99985.37
2023-01-13T09:30:00.147Z,99984.56
2023-01-13T09:30:47.224Z,99981.88
2023-01-13T09:31:34.708Z,99982.53
2023-01-13T09:32:21.691Z,99981.34
2023-01-13T09:33:27.392Z,99976.41
2023-01-13T09:34:38.322Z,99975.56
2023-01-13T09:35:25.334Z,99973.91
2023-01-13T09:36:12.451Z,99963.28
2023-01-13T09:36:59.955Z,99958.78
2023-01-13T09:37:46.943Z,99962.78
2023-01-13T09:38:33.979Z,99966.28
2023-01-13T09:39:22.707Z,99962.25
2023-01-13T09:40:20.429Z,99960.09
2023-01-13T09:41:27.583Z,99955.75
2023-01-13T09:42:39.233Z,99959.25
2023-01-13T09:43:56.315Z,99952.84
2023-01-13T09:44:52.053Z,99956.88
2023-01-13T09:45:47.156Z,99961.56
2023-01-13T09:46:44.154Z,99959.00
2023-01-13T09:47:51.505Z,99962.22
2023-01-13T09:48:52.420Z,99973.34
2023-01-13T09:49:40.927Z,99963.87
2023-01-13T09:50:59.300Z,99979.72
2023-01-13T09:51:50.358Z,99971.06
2023-01-13T09:52:37.500Z,99965.78
2023-01-13T09:53:56.105Z,99961.28
2023-01-13T09:54:43.669Z,99968.34